sensor_id;sensor_type;location;lat;lon;timestamp;P1;durP1;ratioP1;P2;durP2;ratioP2
43216;SDS011;60511;42.686;23.300;2023-02-18T00:01:11;12.30;;;10.02;;
43216;SDS011;60511;42.686;23.300;2023-02-18T00:03:13;12.10;;;10.25;;
43216;SDS011;60511;42.686;23.300;2023-02-18T00:05:13;10.93;;;9.82;;
43216;SDS011;60511;42.686;23.300;2023-02-18T00:07:14;11.82;;;10.63;;
43216;SDS011;60511;42.686;23.300;2023-02-18T00:09:14;11.40;;;10.02;;
43216;SDS011;60511;42.686;23.300;2023-02-18T00:11:15;12.88;;;11.18;;
43216;SDS011;60511;42.686;23.300;2023-02-18T00:13:18;11.65;;;10.43;;
43216;SDS011;60511;42.686;23.300;2023-02-18T00:15:18;12.55;;;10.93;;
43216;SDS011;60511;42.686;23.300;2023-02-18T00:17:18;11.90;;;9.68;;
43216;SDS011;60511;42.686;23.300;2023-02-18T00:19:19;12.02;;;10.48;;
43216;SDS011;60511;42.686;23.300;2023-02-18T00:21:20;11.88;;;10.55;;
43216;SDS011;60511;42.686;23.300;2023-02-18T00:23:20;11.25;;;10.05;;
43216;SDS011;60511;42.686;23.300;2023-02-18T00:25:21;12.63;;;10.95;;
43216;SDS011;60511;42.686;23.300;2023-02-18T00:27:21;12.82;;;10.32;;
43216;SDS011;60511;42.686;23.300;2023-02-18T00:29:21;11.75;;;10.55;;
43216;SDS011;60511;42.686;23.300;2023-02-18T00:31:24;12.88;;;10.30;;
43216;SDS011;60511;42.686;23.300;2023-02-18T00:33:26;11.27;;;10.18;;
43216;SDS011;60511;42.686;23.300;2023-02-18T00:35:27;11.65;;;9.50;;
43216;SDS011;60511;42.686;23.300;2023-02-18T00:37:27;14.50;;;10.77;;
43216;SDS011;60511;42.686;23.300;2023-02-18T00:39:27;11.68;;;10.07;;
43216;SDS011;60511;42.686;23.300;2023-02-18T00:41:28;11.98;;;10.77;;
43216;SDS011;60511;42.686;23.300;2023-02-18T00:43:29;13.00;;;10.93;;
43216;SDS011;60511;42.686;23.300;2023-02-18T00:45:30;14.40;;;11.23;;
43216;SDS011;60511;42.686;23.300;2023-02-18T00:47:30;10.75;;;9.57;;
43216;SDS011;60511;42.686;23.300;2023-02-18T00:49:31;13.13;;;10.93;;
43216;SDS011;60511;42.686;23.300;2023-02-18T00:51:31;11.32;;;10.13;;
43216;SDS011;60511;42.686;23.300;2023-02-18T00:53:33;14.57;;;11.73;;
43216;SDS011;60511;42.686;23.300;2023-02-18T00:55:40;13.10;;;11.52;;
43216;SDS011;60511;42.686;23.300;2023-02-18T00:57:44;14.15;;;11.45;;
43216;SDS011;60511;42.686;23.300;2023-02-18T00:59:45;12.52;;;10.95;;
43216;SDS011;60511;42.686;23.300;2023-02-18T01:01:45;12.10;;;10.70;;
43216;SDS011;60511;42.686;23.300;2023-02-18T01:03:46;14.52;;;10.40;;
43216;SDS011;60511;42.686;23.300;2023-02-18T01:05:46;11.18;;;9.75;;
43216;SDS011;60511;42.686;23.300;2023-02-18T01:07:48;11.45;;;10.25;;
43216;SDS011;60511;42.686;23.300;2023-02-18T01:09:49;11.45;;;9.80;;
43216;SDS011;60511;42.686;23.300;2023-02-18T01:11:50;11.07;;;9.95;;
43216;SDS011;60511;42.686;23.300;2023-02-18T01:13:50;11.88;;;9.98;;
43216;SDS011;60511;42.686;23.300;2023-02-18T01:15:51;12.90;;;10.35;;
43216;SDS011;60511;42.686;23.300;2023-02-18T01:17:51;13.50;;;10.38;;
43216;SDS011;60511;42.686;23.300;2023-02-18T01:19:52;11.40;;;9.88;;
43216;SDS011;60511;42.686;23.300;2023-02-18T01:21:52;13.70;;;10.38;;
43216;SDS011;60511;42.686;23.300;2023-02-18T01:23:52;10.88;;;9.77;;
43216;SDS011;60511;42.686;23.300;2023-02-18T01:25:53;11.68;;;10.27;;
43216;SDS011;60511;42.686;23.300;2023-02-18T01:27:53;11.23;;;9.30;;
43216;SDS011;60511;42.686;23.300;2023-02-18T01:29:54;13.55;;;11.07;;
43216;SDS011;60511;42.686;23.300;2023-02-18T01:31:54;11.57;;;10.38;;
43216;SDS011;60511;42.686;23.300;2023-02-18T01:33:54;11.57;;;10.25;;
43216;SDS011;60511;42.686;23.300;2023-02-18T01:35:55;11.40;;;10.18;;
43216;SDS011;60511;42.686;23.300;2023-02-18T01:37:55;11.13;;;10.02;;
43216;SDS011;60511;42.686;23.300;2023-02-18T01:39:55;11.60;;;9.60;;
43216;SDS011;60511;42.686;23.300;2023-02-18T01:41:56;11.23;;;9.23;;
43216;SDS011;60511;42.686;23.300;2023-02-18T01:44:09;10.35;;;9.32;;
43216;SDS011;60511;42.686;23.300;2023-02-18T01:46:19;10.43;;;9.32;;
43216;SDS011;60511;42.686;23.300;2023-02-18T01:48:24;10.63;;;9.57;;
43216;SDS011;60511;42.686;23.300;2023-02-18T01:50:28;11.88;;;10.55;;
43216;SDS011;60511;42.686;23.300;2023-02-18T01:52:30;11.00;;;9.82;;
43216;SDS011;60511;42.686;23.300;2023-02-18T01:54:33;11.50;;;10.30;;
43216;SDS011;60511;42.686;23.300;2023-02-18T01:56:44;11.95;;;10.60;;
43216;SDS011;60511;42.686;23.300;2023-02-18T01:58:45;11.52;;;10.32;;
43216;SDS011;60511;42.686;23.300;2023-02-18T02:00:47;11.70;;;10.50;;
43216;SDS011;60511;42.686;23.300;2023-02-18T02:02:48;11.55;;;10.35;;
43216;SDS011;60511;42.686;23.300;2023-02-18T02:04:50;10.57;;;9.48;;
43216;SDS011;60511;42.686;23.300;2023-02-18T02:06:51;11.43;;;9.95;;
43216;SDS011;60511;42.686;23.300;2023-02-18T02:08:53;11.65;;;10.35;;
43216;SDS011;60511;42.686;23.300;2023-02-18T02:16:02;11.05;;;9.95;;
43216;SDS011;60511;42.686;23.300;2023-02-18T02:22:55;10.88;;;9.65;;
43216;SDS011;60511;42.686;23.300;2023-02-18T02:34:41;10.65;;;9.20;;
43216;SDS011;60511;42.686;23.300;2023-02-18T02:36:50;11.55;;;10.35;;
43216;SDS011;60511;42.686;23.300;2023-02-18T02:39:05;10.68;;;9.25;;
43216;SDS011;60511;42.686;23.300;2023-02-18T02:45:54;11.38;;;9.05;;
43216;SDS011;60511;42.686;23.300;2023-02-18T02:48:04;11.70;;;9.70;;
43216;SDS011;60511;42.686;23.300;2023-02-18T02:52:10;10.63;;;9.60;;
43216;SDS011;60511;42.686;23.300;2023-02-18T02:54:20;11.32;;;10.15;;
43216;SDS011;60511;42.686;23.300;2023-02-18T02:56:24;10.45;;;9.45;;
43216;SDS011;60511;42.686;23.300;2023-02-18T02:58:24;10.65;;;9.55;;
43216;SDS011;60511;42.686;23.300;2023-02-18T03:11:41;11.55;;;10.38;;
43216;SDS011;60511;42.686;23.300;2023-02-18T03:19:00;11.50;;;10.13;;
43216;SDS011;60511;42.686;23.300;2023-02-18T03:21:11;11.05;;;9.65;;
43216;SDS011;60511;42.686;23.300;2023-02-18T03:23:19;11.63;;;10.43;;
43216;SDS011;60511;42.686;23.300;2023-02-18T03:25:24;10.90;;;9.80;;
43216;SDS011;60511;42.686;23.300;2023-02-18T03:27:26;11.35;;;10.25;;
43216;SDS011;60511;42.686;23.300;2023-02-18T03:29:32;12.13;;;10.07;;
43216;SDS011;60511;42.686;23.300;2023-02-18T03:31:34;10.48;;;9.38;;
43216;SDS011;60511;42.686;23.300;2023-02-18T03:33:45;12.25;;;10.25;;
43216;SDS011;60511;42.686;23.300;2023-02-18T03:35:50;12.07;;;9.68;;
43216;SDS011;60511;42.686;23.300;2023-02-18T03:40:01;10.43;;;9.32;;
43216;SDS011;60511;42.686;23.300;2023-02-18T03:42:02;12.70;;;11.43;;
43216;SDS011;60511;42.686;23.300;2023-02-18T03:44:04;11.43;;;10.25;;
43216;SDS011;60511;42.686;23.300;2023-02-18T03:48:07;12.63;;;11.32;;
43216;SDS011;60511;42.686;23.300;2023-02-18T03:50:07;11.65;;;10.50;;
43216;SDS011;60511;42.686;23.300;2023-02-18T03:52:08;12.23;;;10.85;;
43216;SDS011;60511;42.686;23.300;2023-02-18T03:54:09;12.18;;;11.00;;
43216;SDS011;60511;42.686;23.300;2023-02-18T03:56:09;12.93;;;11.00;;
43216;SDS011;60511;42.686;23.300;2023-02-18T03:58:10;12.45;;;11.18;;
43216;SDS011;60511;42.686;23.300;2023-02-18T04:00:11;14.05;;;10.73;;
43216;SDS011;60511;42.686;23.300;2023-02-18T04:02:11;12.50;;;11.20;;
43216;SDS011;60511;42.686;23.300;2023-02-18T04:04:12;12.05;;;10.75;;
43216;SDS011;60511;42.686;23.300;2023-02-18T04:06:12;12.23;;;10.93;;
43216;SDS011;60511;42.686;23.300;2023-02-18T04:08:12;10.82;;;9.77;;
43216;SDS011;60511;42.686;23.300;2023-02-18T04:10:13;11.40;;;10.20;;
43216;SDS011;60511;42.686;23.300;2023-02-18T04:12:13;11.77;;;10.63;;
43216;SDS011;60511;42.686;23.300;2023-02-18T04:14:13;11.32;;;10.15;;
43216;SDS011;60511;42.686;23.300;2023-02-18T04:16:14;11.55;;;10.18;;
43216;SDS011;60511;42.686;23.300;2023-02-18T04:18:14;10.93;;;9.57;;
43216;SDS011;60511;42.686;23.300;2023-02-18T04:20:15;11.43;;;10.32;;
43216;SDS011;60511;42.686;23.300;2023-02-18T04:22:15;12.20;;;10.60;;
43216;SDS011;60511;42.686;23.300;2023-02-18T04:24:16;11.73;;;10.30;;
43216;SDS011;60511;42.686;23.300;2023-02-18T04:26:16;12.20;;;10.90;;
43216;SDS011;60511;42.686;23.300;2023-02-18T04:28:16;10.52;;;9.50;;
43216;SDS011;60511;42.686;23.300;2023-02-18T04:30:17;11.00;;;9.85;;
43216;SDS011;60511;42.686;23.300;2023-02-18T04:32:17;11.68;;;10.38;;
43216;SDS011;60511;42.686;23.300;2023-02-18T04:34:18;11.73;;;10.23;;
43216;SDS011;60511;42.686;23.300;2023-02-18T04:36:18;12.77;;;10.73;;
43216;SDS011;60511;42.686;23.300;2023-02-18T04:38:18;11.02;;;9.90;;
43216;SDS011;60511;42.686;23.300;2023-02-18T04:40:19;11.73;;;10.35;;
43216;SDS011;60511;42.686;23.300;2023-02-18T04:42:19;11.45;;;10.25;;
43216;SDS011;60511;42.686;23.300;2023-02-18T04:44:20;10.95;;;9.95;;
43216;SDS011;60511;42.686;23.300;2023-02-18T04:46:20;11.98;;;10.75;;
43216;SDS011;60511;42.686;23.300;2023-02-18T04:48:20;12.05;;;10.48;;
43216;SDS011;60511;42.686;23.300;2023-02-18T04:50:21;12.35;;;11.05;;
43216;SDS011;60511;42.686;23.300;2023-02-18T04:52:22;11.98;;;10.70;;
43216;SDS011;60511;42.686;23.300;2023-02-18T04:54:22;11.93;;;10.73;;
43216;SDS011;60511;42.686;23.300;2023-02-18T04:56:22;11.43;;;10.30;;
43216;SDS011;60511;42.686;23.300;2023-02-18T04:58:23;10.63;;;9.63;;
43216;SDS011;60511;42.686;23.300;2023-02-18T05:00:23;11.55;;;10.35;;
43216;SDS011;60511;42.686;23.300;2023-02-18T05:02:24;13.07;;;10.93;;
43216;SDS011;60511;42.686;23.300;2023-02-18T05:04:24;12.50;;;11.20;;
43216;SDS011;60511;42.686;23.300;2023-02-18T05:06:25;13.00;;;11.07;;
43216;SDS011;60511;42.686;23.300;2023-02-18T05:08:25;12.77;;;11.48;;
43216;SDS011;60511;42.686;23.300;2023-02-18T05:10:25;12.90;;;11.63;;
43216;SDS011;60511;42.686;23.300;2023-02-18T05:12:26;13.77;;;12.10;;
43216;SDS011;60511;42.686;23.300;2023-02-18T05:14:26;14.07;;;12.27;;
43216;SDS011;60511;42.686;23.300;2023-02-18T05:16:27;14.60;;;12.93;;
43216;SDS011;60511;42.686;23.300;2023-02-18T05:18:27;13.95;;;11.93;;
43216;SDS011;60511;42.686;23.300;2023-02-18T05:20:28;13.30;;;11.90;;
43216;SDS011;60511;42.686;23.300;2023-02-18T05:22:28;14.55;;;13.20;;
43216;SDS011;60511;42.686;23.300;2023-02-18T05:24:29;13.02;;;11.55;;
43216;SDS011;60511;42.686;23.300;2023-02-18T05:26:29;13.68;;;11.35;;
43216;SDS011;60511;42.686;23.300;2023-02-18T05:28:29;11.38;;;10.18;;
43216;SDS011;60511;42.686;23.300;2023-02-18T05:30:30;12.18;;;10.88;;
43216;SDS011;60511;42.686;23.300;2023-02-18T05:32:31;12.75;;;11.52;;
43216;SDS011;60511;42.686;23.300;2023-02-18T05:34:31;13.82;;;11.82;;
43216;SDS011;60511;42.686;23.300;2023-02-18T05:36:32;12.18;;;10.73;;
43216;SDS011;60511;42.686;23.300;2023-02-18T05:38:32;13.35;;;10.98;;
43216;SDS011;60511;42.686;23.300;2023-02-18T05:40:32;12.63;;;10.80;;
43216;SDS011;60511;42.686;23.300;2023-02-18T05:42:33;11.65;;;10.38;;
43216;SDS011;60511;42.686;23.300;2023-02-18T05:44:33;11.65;;;10.40;;
43216;SDS011;60511;42.686;23.300;2023-02-18T05:46:33;11.93;;;10.70;;
43216;SDS011;60511;42.686;23.300;2023-02-18T05:48:34;11.40;;;10.15;;
43216;SDS011;60511;42.686;23.300;2023-02-18T05:50:34;14.32;;;10.48;;
43216;SDS011;60511;42.686;23.300;2023-02-18T05:52:35;12.57;;;11.27;;
43216;SDS011;60511;42.686;23.300;2023-02-18T05:54:35;11.90;;;10.55;;
43216;SDS011;60511;42.686;23.300;2023-02-18T05:56:36;12.30;;;11.00;;
43216;SDS011;60511;42.686;23.300;2023-02-18T05:58:36;13.32;;;11.30;;
43216;SDS011;60511;42.686;23.300;2023-02-18T06:00:37;11.88;;;10.73;;
43216;SDS011;60511;42.686;23.300;2023-02-18T06:02:37;13.18;;;11.40;;
43216;SDS011;60511;42.686;23.300;2023-02-18T06:04:37;13.25;;;11.48;;
43216;SDS011;60511;42.686;23.300;2023-02-18T06:06:39;14.30;;;11.57;;
43216;SDS011;60511;42.686;23.300;2023-02-18T06:08:39;12.60;;;11.07;;
43216;SDS011;60511;42.686;23.300;2023-02-18T06:10:40;12.88;;;11.35;;
43216;SDS011;60511;42.686;23.300;2023-02-18T06:12:40;13.88;;;11.70;;
43216;SDS011;60511;42.686;23.300;2023-02-18T06:14:41;13.43;;;11.38;;
43216;SDS011;60511;42.686;23.300;2023-02-18T06:16:41;13.15;;;11.32;;
43216;SDS011;60511;42.686;23.300;2023-02-18T06:18:42;13.15;;;10.80;;
43216;SDS011;60511;42.686;23.300;2023-02-18T06:20:42;11.85;;;10.65;;
43216;SDS011;60511;42.686;23.300;2023-02-18T06:22:43;11.93;;;10.43;;
43216;SDS011;60511;42.686;23.300;2023-02-18T06:24:43;14.43;;;11.90;;
43216;SDS011;60511;42.686;23.300;2023-02-18T06:26:43;11.18;;;10.07;;
43216;SDS011;60511;42.686;23.300;2023-02-18T06:28:44;13.77;;;10.40;;
43216;SDS011;60511;42.686;23.300;2023-02-18T06:30:44;12.20;;;10.60;;
43216;SDS011;60511;42.686;23.300;2023-02-18T06:32:45;12.52;;;10.52;;
43216;SDS011;60511;42.686;23.300;2023-02-18T06:34:45;13.35;;;10.77;;
43216;SDS011;60511;42.686;23.300;2023-02-18T06:36:46;12.77;;;10.35;;
43216;SDS011;60511;42.686;23.300;2023-02-18T06:38:46;13.93;;;11.15;;
43216;SDS011;60511;42.686;23.300;2023-02-18T06:40:46;15.02;;;11.02;;
43216;SDS011;60511;42.686;23.300;2023-02-18T06:42:47;14.95;;;10.88;;
43216;SDS011;60511;42.686;23.300;2023-02-18T06:44:47;13.73;;;10.35;;
43216;SDS011;60511;42.686;23.300;2023-02-18T06:46:48;11.60;;;10.40;;
43216;SDS011;60511;42.686;23.300;2023-02-18T06:48:48;12.70;;;11.15;;
43216;SDS011;60511;42.686;23.300;2023-02-18T06:50:49;12.45;;;11.20;;
43216;SDS011;60511;42.686;23.300;2023-02-18T06:52:49;12.88;;;10.15;;
43216;SDS011;60511;42.686;23.300;2023-02-18T06:54:49;12.13;;;10.60;;
43216;SDS011;60511;42.686;23.300;2023-02-18T06:56:50;12.95;;;10.75;;
43216;SDS011;60511;42.686;23.300;2023-02-18T06:58:50;13.80;;;10.73;;
43216;SDS011;60511;42.686;23.300;2023-02-18T07:00:51;12.10;;;10.52;;
43216;SDS011;60511;42.686;23.300;2023-02-18T07:02:52;14.18;;;11.18;;
43216;SDS011;60511;42.686;23.300;2023-02-18T07:04:52;12.30;;;10.75;;
43216;SDS011;60511;42.686;23.300;2023-02-18T07:06:54;11.45;;;9.77;;
43216;SDS011;60511;42.686;23.300;2023-02-18T07:08:54;17.33;;;11.50;;
43216;SDS011;60511;42.686;23.300;2023-02-18T07:10:55;13.65;;;11.02;;
43216;SDS011;60511;42.686;23.300;2023-02-18T07:12:55;14.23;;;11.10;;
43216;SDS011;60511;42.686;23.300;2023-02-18T07:14:56;13.13;;;10.80;;
43216;SDS011;60511;42.686;23.300;2023-02-18T07:16:56;15.82;;;11.43;;
43216;SDS011;60511;42.686;23.300;2023-02-18T07:18:57;13.90;;;10.05;;
43216;SDS011;60511;42.686;23.300;2023-02-18T07:20:57;12.25;;;10.75;;
43216;SDS011;60511;42.686;23.300;2023-02-18T07:22:58;12.27;;;10.75;;
43216;SDS011;60511;42.686;23.300;2023-02-18T07:24:58;12.10;;;10.85;;
43216;SDS011;60511;42.686;23.300;2023-02-18T07:26:58;11.68;;;9.95;;
43216;SDS011;60511;42.686;23.300;2023-02-18T07:28:59;13.30;;;11.48;;
43216;SDS011;60511;42.686;23.300;2023-02-18T07:30:59;14.23;;;11.40;;
43216;SDS011;60511;42.686;23.300;2023-02-18T07:33:00;12.40;;;10.77;;
43216;SDS011;60511;42.686;23.300;2023-02-18T07:35:00;12.05;;;10.18;;
43216;SDS011;60511;42.686;23.300;2023-02-18T07:37:01;12.00;;;9.80;;
43216;SDS011;60511;42.686;23.300;2023-02-18T07:39:03;12.32;;;10.80;;
43216;SDS011;60511;42.686;23.300;2023-02-18T07:41:04;11.82;;;10.35;;
43216;SDS011;60511;42.686;23.300;2023-02-18T07:43:04;12.20;;;10.88;;
43216;SDS011;60511;42.686;23.300;2023-02-18T07:45:05;13.73;;;11.18;;
43216;SDS011;60511;42.686;23.300;2023-02-18T07:47:06;14.75;;;11.00;;
43216;SDS011;60511;42.686;23.300;2023-02-18T07:49:08;12.40;;;10.88;;
43216;SDS011;60511;42.686;23.300;2023-02-18T07:51:09;14.45;;;11.75;;
43216;SDS011;60511;42.686;23.300;2023-02-18T07:53:15;12.18;;;10.88;;
43216;SDS011;60511;42.686;23.300;2023-02-18T07:55:16;10.85;;;9.63;;
43216;SDS011;60511;42.686;23.300;2023-02-18T07:57:16;13.40;;;11.52;;
43216;SDS011;60511;42.686;23.300;2023-02-18T07:59:17;16.83;;;11.75;;
43216;SDS011;60511;42.686;23.300;2023-02-18T08:01:17;13.18;;;10.75;;
43216;SDS011;60511;42.686;23.300;2023-02-18T08:03:18;11.90;;;10.57;;
43216;SDS011;60511;42.686;23.300;2023-02-18T08:05:21;13.27;;;10.68;;
43216;SDS011;60511;42.686;23.300;2023-02-18T08:07:22;13.48;;;11.02;;
43216;SDS011;60511;42.686;23.300;2023-02-18T08:09:22;12.95;;;10.52;;
43216;SDS011;60511;42.686;23.300;2023-02-18T08:11:23;12.65;;;11.20;;
43216;SDS011;60511;42.686;23.300;2023-02-18T08:13:23;13.18;;;10.98;;
43216;SDS011;60511;42.686;23.300;2023-02-18T08:15:23;15.20;;;11.43;;
43216;SDS011;60511;42.686;23.300;2023-02-18T08:17:24;13.55;;;10.73;;
43216;SDS011;60511;42.686;23.300;2023-02-18T08:19:24;15.20;;;10.25;;
43216;SDS011;60511;42.686;23.300;2023-02-18T08:21:25;11.88;;;10.55;;
43216;SDS011;60511;42.686;23.300;2023-02-18T08:23:25;12.85;;;11.02;;
43216;SDS011;60511;42.686;23.300;2023-02-18T08:25:26;11.43;;;10.23;;
43216;SDS011;60511;42.686;23.300;2023-02-18T08:27:27;13.10;;;10.57;;
43216;SDS011;60511;42.686;23.300;2023-02-18T08:29:28;12.02;;;10.77;;
43216;SDS011;60511;42.686;23.300;2023-02-18T08:31:30;12.90;;;10.98;;
43216;SDS011;60511;42.686;23.300;2023-02-18T08:33:31;12.77;;;10.52;;
43216;SDS011;60511;42.686;23.300;2023-02-18T08:35:32;11.95;;;10.75;;
43216;SDS011;60511;42.686;23.300;2023-02-18T08:37:33;12.60;;;10.45;;
43216;SDS011;60511;42.686;23.300;2023-02-18T08:39:33;14.45;;;11.00;;
43216;SDS011;60511;42.686;23.300;2023-02-18T08:41:35;13.50;;;11.27;;
43216;SDS011;60511;42.686;23.300;2023-02-18T08:43:35;13.90;;;11.18;;
43216;SDS011;60511;42.686;23.300;2023-02-18T08:45:36;14.85;;;10.82;;
43216;SDS011;60511;42.686;23.300;2023-02-18T08:47:38;14.27;;;11.13;;
43216;SDS011;60511;42.686;23.300;2023-02-18T08:49:38;12.27;;;10.88;;
43216;SDS011;60511;42.686;23.300;2023-02-18T08:51:38;14.07;;;11.80;;
43216;SDS011;60511;42.686;23.300;2023-02-18T08:53:39;12.27;;;10.98;;
43216;SDS011;60511;42.686;23.300;2023-02-18T08:55:40;11.93;;;10.52;;
43216;SDS011;60511;42.686;23.300;2023-02-18T08:57:41;11.90;;;9.88;;
43216;SDS011;60511;42.686;23.300;2023-02-18T08:59:41;12.10;;;9.80;;
43216;SDS011;60511;42.686;23.300;2023-02-18T09:01:42;13.45;;;9.93;;
43216;SDS011;60511;42.686;23.300;2023-02-18T09:03:42;12.65;;;10.65;;
43216;SDS011;60511;42.686;23.300;2023-02-18T09:05:42;11.60;;;10.23;;
43216;SDS011;60511;42.686;23.300;2023-02-18T09:07:43;10.48;;;9.38;;
43216;SDS011;60511;42.686;23.300;2023-02-18T09:09:43;15.77;;;9.90;;
43216;SDS011;60511;42.686;23.300;2023-02-18T09:11:44;13.90;;;10.80;;
43216;SDS011;60511;42.686;23.300;2023-02-18T09:13:45;11.18;;;10.05;;
43216;SDS011;60511;42.686;23.300;2023-02-18T09:15:45;11.07;;;9.98;;
43216;SDS011;60511;42.686;23.300;2023-02-18T09:17:55;10.63;;;9.15;;
43216;SDS011;60511;42.686;23.300;2023-02-18T09:19:55;10.68;;;9.63;;
43216;SDS011;60511;42.686;23.300;2023-02-18T09:21:56;11.07;;;9.38;;
43216;SDS011;60511;42.686;23.300;2023-02-18T09:23:57;11.27;;;9.93;;
43216;SDS011;60511;42.686;23.300;2023-02-18T09:25:58;12.05;;;9.95;;
43216;SDS011;60511;42.686;23.300;2023-02-18T09:28:07;11.10;;;9.57;;
43216;SDS011;60511;42.686;23.300;2023-02-18T09:30:07;10.25;;;9.15;;
43216;SDS011;60511;42.686;23.300;2023-02-18T09:32:08;10.52;;;9.32;;
43216;SDS011;60511;42.686;23.300;2023-02-18T09:34:10;11.43;;;8.97;;
43216;SDS011;60511;42.686;23.300;2023-02-18T09:36:11;10.20;;;9.00;;
43216;SDS011;60511;42.686;23.300;2023-02-18T09:38:13;11.57;;;9.20;;
43216;SDS011;60511;42.686;23.300;2023-02-18T09:42:40;10.27;;;9.20;;
43216;SDS011;60511;42.686;23.300;2023-02-18T09:46:56;10.65;;;8.95;;
43216;SDS011;60511;42.686;23.300;2023-02-18T09:49:03;11.25;;;9.38;;
43216;SDS011;60511;42.686;23.300;2023-02-18T09:51:09;12.13;;;9.65;;
43216;SDS011;60511;42.686;23.300;2023-02-18T09:53:13;10.30;;;9.20;;
43216;SDS011;60511;42.686;23.300;2023-02-18T09:55:30;13.70;;;8.75;;
43216;SDS011;60511;42.686;23.300;2023-02-18T09:59:42;11.20;;;9.48;;
43216;SDS011;60511;42.686;23.300;2023-02-18T10:01:45;10.27;;;8.95;;
43216;SDS011;60511;42.686;23.300;2023-02-18T10:03:47;9.93;;;8.93;;
43216;SDS011;60511;42.686;23.300;2023-02-18T10:05:52;10.70;;;8.93;;
43216;SDS011;60511;42.686;23.300;2023-02-18T10:07:55;10.13;;;8.52;;
43216;SDS011;60511;42.686;23.300;2023-02-18T10:10:04;11.05;;;8.93;;
43216;SDS011;60511;42.686;23.300;2023-02-18T10:14:17;10.00;;;9.00;;
43216;SDS011;60511;42.686;23.300;2023-02-18T10:16:19;8.95;;;8.15;;
43216;SDS011;60511;42.686;23.300;2023-02-18T10:20:29;9.68;;;8.65;;
43216;SDS011;60511;42.686;23.300;2023-02-18T10:22:32;9.18;;;8.27;;
43216;SDS011;60511;42.686;23.300;2023-02-18T10:24:34;9.55;;;8.55;;
43216;SDS011;60511;42.686;23.300;2023-02-18T10:26:40;9.65;;;8.68;;
43216;SDS011;60511;42.686;23.300;2023-02-18T10:28:41;9.75;;;8.73;;
43216;SDS011;60511;42.686;23.300;2023-02-18T10:30:47;9.35;;;8.45;;
43216;SDS011;60511;42.686;23.300;2023-02-18T10:32:55;9.52;;;8.55;;
43216;SDS011;60511;42.686;23.300;2023-02-18T10:35:14;9.75;;;8.73;;
43216;SDS011;60511;42.686;23.300;2023-02-18T10:42:13;10.35;;;8.38;;
43216;SDS011;60511;42.686;23.300;2023-02-18T10:44:29;10.20;;;8.27;;
43216;SDS011;60511;42.686;23.300;2023-02-18T10:46:55;9.00;;;8.10;;
43216;SDS011;60511;42.686;23.300;2023-02-18T10:50:07;9.20;;;8.40;;
43216;SDS011;60511;42.686;23.300;2023-02-18T10:51:55;9.45;;;7.93;;
43216;SDS011;60511;42.686;23.300;2023-02-18T10:54:06;9.75;;;8.00;;
43216;SDS011;60511;42.686;23.300;2023-02-18T10:56:06;9.27;;;8.48;;
43216;SDS011;60511;42.686;23.300;2023-02-18T10:58:23;9.32;;;8.43;;
43216;SDS011;60511;42.686;23.300;2023-02-18T11:00:26;8.20;;;7.40;;
43216;SDS011;60511;42.686;23.300;2023-02-18T11:02:33;9.45;;;8.45;;
43216;SDS011;60511;42.686;23.300;2023-02-18T11:04:36;8.95;;;8.10;;
43216;SDS011;60511;42.686;23.300;2023-02-18T11:06:40;9.05;;;8.00;;
43216;SDS011;60511;42.686;23.300;2023-02-18T11:08:44;9.70;;;8.57;;
43216;SDS011;60511;42.686;23.300;2023-02-18T11:10:45;11.60;;;8.85;;
43216;SDS011;60511;42.686;23.300;2023-02-18T11:12:48;9.77;;;8.77;;
43216;SDS011;60511;42.686;23.300;2023-02-18T11:17:26;9.10;;;8.20;;
43216;SDS011;60511;42.686;23.300;2023-02-18T11:21:35;8.25;;;7.45;;
43216;SDS011;60511;42.686;23.300;2023-02-18T11:23:44;9.90;;;8.60;;
43216;SDS011;60511;42.686;23.300;2023-02-18T11:28:01;9.50;;;8.50;;
43216;SDS011;60511;42.686;23.300;2023-02-18T11:30:30;8.63;;;7.82;;
43216;SDS011;60511;42.686;23.300;2023-02-18T11:32:33;9.75;;;7.93;;
43216;SDS011;60511;42.686;23.300;2023-02-18T11:34:35;8.60;;;7.80;;
43216;SDS011;60511;42.686;23.300;2023-02-18T11:36:36;9.15;;;8.25;;
43216;SDS011;60511;42.686;23.300;2023-02-18T11:38:52;9.40;;;7.75;;
43216;SDS011;60511;42.686;23.300;2023-02-18T11:41:05;8.80;;;7.90;;
43216;SDS011;60511;42.686;23.300;2023-02-18T11:43:11;8.30;;;7.50;;
43216;SDS011;60511;42.686;23.300;2023-02-18T11:45:28;9.60;;;8.10;;
43216;SDS011;60511;42.686;23.300;2023-02-18T11:47:34;8.68;;;7.72;;
43216;SDS011;60511;42.686;23.300;2023-02-18T11:49:35;8.32;;;7.53;;
43216;SDS011;60511;42.686;23.300;2023-02-18T11:51:36;9.38;;;8.38;;
43216;SDS011;60511;42.686;23.300;2023-02-18T11:53:49;8.32;;;7.35;;
43216;SDS011;60511;42.686;23.300;2023-02-18T11:55:55;8.20;;;7.28;;
43216;SDS011;60511;42.686;23.300;2023-02-18T11:58:01;7.95;;;7.15;;
43216;SDS011;60511;42.686;23.300;2023-02-18T12:00:15;8.23;;;7.43;;
43216;SDS011;60511;42.686;23.300;2023-02-18T12:02:33;8.63;;;7.63;;
43216;SDS011;60511;42.686;23.300;2023-02-18T12:09:05;8.10;;;7.30;;
43216;SDS011;60511;42.686;23.300;2023-02-18T12:11:25;7.63;;;6.93;;
43216;SDS011;60511;42.686;23.300;2023-02-18T12:20:49;7.35;;;6.57;;
43216;SDS011;60511;42.686;23.300;2023-02-18T12:23:16;7.65;;;6.60;;
43216;SDS011;60511;42.686;23.300;2023-02-18T12:36:37;7.90;;;7.10;;
43216;SDS011;60511;42.686;23.300;2023-02-18T12:52:27;7.20;;;6.50;;
43216;SDS011;60511;42.686;23.300;2023-02-18T13:03:29;7.75;;;7.03;;
43216;SDS011;60511;42.686;23.300;2023-02-18T13:05:41;8.48;;;7.10;;
43216;SDS011;60511;42.686;23.300;2023-02-18T13:07:54;7.43;;;6.70;;
43216;SDS011;60511;42.686;23.300;2023-02-18T13:14:55;9.25;;;6.68;;
43216;SDS011;60511;42.686;23.300;2023-02-18T13:17:01;7.82;;;6.18;;
43216;SDS011;60511;42.686;23.300;2023-02-18T13:21:25;7.85;;;6.78;;
43216;SDS011;60511;42.686;23.300;2023-02-18T13:23:28;7.18;;;6.47;;
43216;SDS011;60511;42.686;23.300;2023-02-18T13:25:32;7.85;;;6.53;;
43216;SDS011;60511;42.686;23.300;2023-02-18T13:27:40;7.38;;;6.68;;
43216;SDS011;60511;42.686;23.300;2023-02-18T13:32:41;7.13;;;6.43;;
43216;SDS011;60511;42.686;23.300;2023-02-18T13:39:17;7.15;;;6.45;;
43216;SDS011;60511;42.686;23.300;2023-02-18T13:41:20;6.95;;;6.30;;
43216;SDS011;60511;42.686;23.300;2023-02-18T13:45:30;7.25;;;6.55;;
43216;SDS011;60511;42.686;23.300;2023-02-18T13:47:42;6.18;;;5.57;;
43216;SDS011;60511;42.686;23.300;2023-02-18T13:49:44;6.88;;;6.18;;
43216;SDS011;60511;42.686;23.300;2023-02-18T13:51:47;6.22;;;5.63;;
43216;SDS011;60511;42.686;23.300;2023-02-18T13:53:50;7.38;;;6.63;;
43216;SDS011;60511;42.686;23.300;2023-02-18T13:59:58;7.22;;;6.53;;
43216;SDS011;60511;42.686;23.300;2023-02-18T14:02:19;6.90;;;6.22;;
43216;SDS011;60511;42.686;23.300;2023-02-18T14:11:29;6.80;;;6.20;;
43216;SDS011;60511;42.686;23.300;2023-02-18T14:16:11;6.93;;;6.32;;
43216;SDS011;60511;42.686;23.300;2023-02-18T14:24:42;7.03;;;6.32;;
43216;SDS011;60511;42.686;23.300;2023-02-18T14:26:47;5.72;;;5.22;;